Time;durP1;ratioP1;P1;durP2;ratioP2;P2;SDS_P1;SDS_P2;PMS_P1;PMS_P2;Temp;Humidity;BMP_temperature;BMP_pressure;BME280_temperature;BME280_humidity;BME280_pressure;Samples;Min_cycle;Max_cycle;Signal;HPM_P1;HPM_P2
2022/11/11 00:00:36;;;;;;;18.83;7.65;;;;;;;10.95;63.03;100084.06;4472057;32;20096;-86
2022/11/11 00:03:01;;;;;;;18.67;7.00;;;;;;;10.82;63.24;100086.28;4471883;32;20440;-86
2022/11/11 00:05:27;;;;;;;18.60;6.80;;;;;;;10.90;63.15;100088.66;4471972;32;20142;-86
2022/11/11 00:07:58;;;;;;;16.67;7.07;;;;;;;10.95;62.94;100089.34;4471905;32;20457;-86
2022/11/11 00:10:24;;;;;;;16.70;7.25;;;;;;;10.86;63.35;100089.69;4470830;32;20407;-86
2022/11/11 00:12:50;;;;;;;16.27;7.07;;;;;;;10.66;64.05;100093.00;4472008;32;20093;-87
2022/11/11 00:15:15;;;;;;;18.20;7.45;;;;;;;10.75;63.87;100090.03;4470756;32;20077;-85
2022/11/11 00:26:04;;;;;;;18.05;7.12;;;;;;;10.90;63.54;100109.75;4487640;32;20103;-84
2022/11/11 00:28:29;;;;;;;19.00;7.20;;;;;;;10.82;63.82;100113.50;4473109;32;20096;-84
2022/11/11 00:31:11;;;;;;;15.90;6.85;;;;;;;10.90;63.70;100107.97;4487277;32;20102;-84
2022/11/11 00:33:37;;;;;;;14.57;6.60;;;;;;;11.13;63.26;100101.03;4473604;32;20080;-84
2022/11/11 00:36:03;;;;;;;18.33;7.50;;;;;;;10.62;65.14;100113.31;4487511;32;20088;-84
2022/11/11 00:38:44;;;;;;;18.12;8.05;;;;;;;10.74;65.10;100112.91;4473153;32;20443;-84
2022/11/11 00:41:35;;;;;;;17.00;7.78;;;;;;;10.92;64.48;100113.19;4487367;32;20095;-83
2022/11/11 00:44:00;;;;;;;15.55;7.03;;;;;;;10.71;65.17;100109.50;4475361;32;20103;-84
2022/11/11 00:51:54;;;;;;;21.10;8.35;;;;;;;10.53;66.27;100114.50;4487342;32;20546;-85
2022/11/11 00:54:19;;;;;;;19.87;7.68;;;;;;;10.41;67.00;100114.87;4487158;32;20080;-86
2022/11/11 00:56:48;;;;;;;19.75;7.50;;;;;;;10.75;65.86;100116.41;4487299;32;20093;-86
2022/11/11 00:59:13;;;;;;;17.55;7.35;;;;;;;10.87;65.45;100117.75;4487252;32;20492;-87
2022/11/11 01:01:39;;;;;;;17.60;7.37;;;;;;;10.99;65.00;100112.94;4487263;32;20076;-87
2022/11/11 01:04:04;;;;;;;17.12;7.93;;;;;;;11.05;64.80;100110.97;4487190;32;20084;-87
2022/11/11 01:06:30;;;;;;;17.55;7.60;;;;;;;10.82;65.22;100120.56;4487251;32;20081;-87
2022/11/11 01:08:55;;;;;;;19.30;7.82;;;;;;;10.89;65.23;100108.00;4487147;32;20084;-87
2022/11/11 01:11:23;;;;;;;16.67;7.00;;;;;;;10.88;65.07;100107.16;4487200;32;20120;-87
2022/11/11 01:13:48;;;;;;;18.92;7.07;;;;;;;10.78;65.74;100106.62;4487094;32;20363;-87
2022/11/11 01:16:19;;;;;;;16.45;6.82;;;;;;;10.86;65.30;100098.44;4487085;32;20084;-87
2022/11/11 01:18:44;;;;;;;17.77;8.07;;;;;;;10.82;65.28;100107.38;4472931;32;20174;-87
2022/11/11 01:21:18;;;;;;;17.50;7.90;;;;;;;10.51;65.98;100104.94;4486628;32;20444;-87
2022/11/11 01:23:47;;;;;;;19.10;7.93;;;;;;;10.45;66.42;100105.09;4459761;32;20167;-87
2022/11/11 01:26:17;;;;;;;18.70;7.30;;;;;;;10.77;65.69;100112.78;4487195;32;20132;-88
2022/11/11 01:28:45;;;;;;;19.87;7.47;;;;;;;11.12;64.44;100108.06;4472852;32;20101;-87
2022/11/11 01:31:14;;;;;;;20.65;7.80;;;;;;;10.86;65.16;100109.00;4487216;32;20084;-87
2022/11/11 01:33:40;;;;;;;15.68;7.03;;;;;;;10.92;64.73;100108.78;4487155;32;20084;-87
2022/11/11 01:36:09;;;;;;;17.83;8.40;;;;;;;10.73;65.52;100120.88;4472746;32;20111;-86
2022/11/11 01:38:35;;;;;;;18.33;7.82;;;;;;;11.21;64.17;100109.53;4487109;32;20104;-86
2022/11/11 01:41:31;;;;;;;18.10;7.45;;;;;;;11.23;64.12;100112.97;4487020;32;20113;-87
2022/11/11 01:43:47;;;;;;;18.45;7.30;;;;;;;11.19;63.80;100119.28;4486807;32;20092;-87
2022/11/11 01:46:33;;;;;;;16.80;7.87;;;;;;;10.93;65.02;100112.25;4486232;32;20080;-87
2022/11/11 01:49:24;;;;;;;16.83;7.10;;;;;;;10.85;64.83;100112.53;4472550;32;20185;-85
2022/11/11 01:51:56;;;;;;;15.30;7.03;;;;;;;11.17;64.19;100115.81;4486781;32;20121;-86
2022/11/11 01:54:37;;;;;;;19.25;6.95;;;;;;;10.97;64.49;100112.13;4486869;32;20079;-88
2022/11/11 01:57:18;;;;;;;18.27;7.20;;;;;;;11.04;63.89;100110.12;4472441;32;20081;-87
2022/11/11 01:59:45;;;;;;;17.20;7.10;;;;;;;11.03;64.12;100108.41;4486795;32;20135;-87
2022/11/11 02:02:20;;;;;;;16.37;6.97;;;;;;;11.23;63.32;100109.47;4472596;32;20162;-87
2022/11/11 02:07:33;;;;;;;14.32;6.37;;;;;;;11.41;62.42;100104.38;4452940;32;20394;-85
2022/11/11 02:10:00;;;;;;;16.67;6.43;;;;;;;11.60;61.72;100107.19;4453226;32;20124;-86
2022/11/11 02:15:11;;;;;;;13.55;6.37;;;;;;;11.20;62.66;100111.31;4453371;32;20207;-86
2022/11/11 02:17:38;;;;;;;17.03;6.20;;;;;;;11.56;61.71;100112.66;4453193;32;20112;-85
2022/11/11 02:20:04;;;;;;;16.37;7.05;;;;;;;11.63;61.44;100116.78;4452997;32;20680;-86
2022/11/11 02:22:29;;;;;;;18.65;6.28;;;;;;;10.95;63.45;100115.69;4453097;32;20204;-86
2022/11/11 02:24:58;;;;;;;17.10;6.40;;;;;;;11.20;62.80;100115.69;4453029;32;20135;-86
2022/11/11 02:27:26;;;;;;;15.38;6.30;;;;;;;11.18;62.89;100125.44;4439719;32;20195;-86
2022/11/11 02:29:55;;;;;;;17.58;6.85;;;;;;;11.09;62.60;100128.44;4453038;32;20127;-86
2022/11/11 02:32:20;;;;;;;17.95;6.80;;;;;;;11.34;62.06;100118.72;4440089;32;20101;-86
2022/11/11 02:34:46;;;;;;;17.02;6.22;;;;;;;10.72;63.85;100127.91;4452878;32;20104;-86
2022/11/11 02:37:13;;;;;;;17.33;6.28;;;;;;;11.26;62.10;100120.78;4452801;32;20384;-86
2022/11/11 02:39:47;;;;;;;16.60;6.47;;;;;;;11.54;61.10;100125.88;4452723;32;20101;-86
2022/11/11 02:42:13;;;;;;;18.27;6.70;;;;;;;11.17;62.34;100129.88;4440031;32;20215;-87
2022/11/11 02:44:39;;;;;;;15.63;6.10;;;;;;;11.09;62.35;100134.56;4455949;32;20133;-87
2022/11/11 02:47:04;;;;;;;16.92;6.78;;;;;;;11.13;62.39;100138.81;4486168;32;20073;-86
2022/11/11 02:49:30;;;;;;;18.10;6.43;;;;;;;11.30;61.85;100148.78;4472089;32;20156;-87
2022/11/11 02:51:56;;;;;;;17.35;6.43;;;;;;;11.12;62.24;100139.72;4486020;32;20092;-87
2022/11/11 02:54:21;;;;;;;15.88;6.50;;;;;;;11.04;62.37;100152.31;4472214;32;20120;-87
2022/11/11 02:59:30;;;;;;;17.60;6.75;;;;;;;10.88;63.49;100151.12;4488172;32;20146;-86
2022/11/11 03:01:56;;;;;;;16.23;6.32;;;;;;;11.03;62.94;100150.59;4488044;32;20085;-87
2022/11/11 03:04:23;;;;;;;18.45;6.60;;;;;;;10.76;63.91;100160.31;4473839;32;20111;-86
2022/11/11 03:06:49;;;;;;;15.95;6.78;;;;;;;11.21;62.45;100149.09;4473841;32;20442;-85
2022/11/11 03:09:14;;;;;;;16.00;6.87;;;;;;;11.41;61.58;100154.53;4488391;32;20080;-90
2022/11/11 03:11:43;;;;;;;19.77;7.22;;;;;;;11.12;62.96;100160.81;4488310;32;20103;-90
2022/11/11 03:14:08;;;;;;;17.02;7.15;;;;;;;11.10;63.07;100173.19;4473619;32;20106;-90
2022/11/11 03:19:20;;;;;;;17.75;6.72;;;;;;;11.36;62.19;100172.28;4488069;32;20168;-89
2022/11/11 03:21:45;;;;;;;18.25;7.60;;;;;;;10.97;63.25;100172.75;4487754;32;20088;-84
2022/11/11 03:24:11;;;;;;;17.33;7.15;;;;;;;11.16;62.81;100174.75;4487707;32;20150;-82
2022/11/11 03:26:36;;;;;;;17.58;7.20;;;;;;;11.38;62.26;100172.25;4487938;32;20080;-84
2022/11/11 03:29:03;;;;;;;16.50;7.22;;;;;;;10.84;63.84;100175.87;4487785;32;20088;-83
2022/11/11 03:31:28;;;;;;;19.60;8.30;;;;;;;10.73;64.37;100179.72;4473432;32;20135;-81
2022/11/11 03:33:53;;;;;;;20.95;7.65;;;;;;;10.92;63.92;100184.38;4473657;32;20092;-83
2022/11/11 03:36:19;;;;;;;19.37;7.97;;;;;;;11.14;63.11;100174.81;4473409;32;20352;-82
2022/11/11 03:38:44;;;;;;;18.33;7.72;;;;;;;11.03;63.29;100187.53;4473577;32;20092;-82
2022/11/11 03:41:10;;;;;;;19.50;7.82;;;;;;;10.62;64.69;100190.63;4473405;32;20097;-84
2022/11/11 03:43:35;;;;;;;18.08;7.60;;;;;;;10.71;64.39;100196.50;4487825;32;20155;-85
2022/11/11 03:46:03;;;;;;;18.02;7.57;;;;;;;10.52;65.11;100194.44;4473591;32;20142;-85
2022/11/11 03:48:30;;;;;;;19.10;7.60;;;;;;;10.99;63.78;100192.03;4487938;32;20130;-85
2022/11/11 03:50:56;;;;;;;18.98;7.72;;;;;;;11.21;62.85;100191.28;4488009;32;20115;-85
2022/11/11 03:53:22;;;;;;;20.00;8.02;;;;;;;10.96;63.77;100196.53;4488016;32;20101;-83
2022/11/11 03:55:48;;;;;;;17.23;7.50;;;;;;;11.13;63.17;100190.69;4488004;32;20076;-85
2022/11/11 03:58:13;;;;;;;21.62;8.18;;;;;;;10.60;64.45;100194.19;4487956;32;20096;-83
2022/11/11 04:00:39;;;;;;;18.95;7.87;;;;;;;10.76;64.39;100195.44;4487787;32;20147;-83
2022/11/11 04:11:39;;;;;;;18.75;7.57;;;;;;;10.94;63.64;100191.31;4475586;32;20471;-84
2022/11/11 04:16:52;;;;;;;17.67;7.70;;;;;;;10.62;64.63;100203.78;4475592;32;20103;-83
2022/11/11 04:22:02;;;;;;;19.50;7.37;;;;;;;10.59;64.72;100206.50;4475422;32;20114;-83
2022/11/11 04:27:17;;;;;;;18.85;7.18;;;;;;;10.55;65.15;100207.53;4460010;32;20104;-83
2022/11/11 04:29:43;;;;;;;15.68;7.00;;;;;;;10.62;64.71;100203.78;4471949;32;20093;-86
2022/11/11 04:35:01;;;;;;;17.62;7.12;;;;;;;10.74;64.30;100214.81;4471848;32;20378;-85
2022/11/11 04:37:29;;;;;;;19.35;6.47;;;;;;;10.80;63.99;100212.00;4457420;32;20176;-86
2022/11/11 04:42:39;;;;;;;19.23;6.75;;;;;;;10.90;63.41;100213.44;4486157;32;20118;-88
2022/11/11 04:45:31;;;;;;;18.02;6.90;;;;;;;11.07;63.01;100209.34;4487087;32;20112;-88
2022/11/11 04:47:59;;;;;;;15.95;6.22;;;;;;;11.00;63.14;100214.84;4486247;31;20107;-88
2022/11/11 04:50:28;;;;;;;15.85;6.15;;;;;;;10.85;63.50;100225.88;4487051;32;20200;-89
2022/11/11 04:52:53;;;;;;;16.80;6.20;;;;;;;11.12;62.51;100212.69;4486096;31;21129;-88
2022/11/11 04:58:03;;;;;;;15.32;5.35;;;;;;;11.23;61.76;100220.25;4479973;31;20653;-89
2022/11/11 05:00:28;;;;;;;17.10;6.20;;;;;;;11.33;61.25;100213.75;4486748;31;20097;-94
2022/11/11 05:11:07;;;;;;;16.40;6.03;;;;;;;11.27;61.04;100221.88;4474628;32;20177;-85
2022/11/11 05:21:51;;;;;;;13.27;5.72;;;;;;;11.35;60.68;100222.47;4485310;32;20145;-86
2022/11/11 05:27:03;;;;;;;15.43;5.90;;;;;;;11.34;60.52;100216.34;4486714;32;20148;-85
2022/11/11 05:29:28;;;;;;;14.63;5.97;;;;;;;11.38;60.38;100220.59;4485819;31;20088;-85
2022/11/11 05:31:54;;;;;;;17.60;5.80;;;;;;;11.20;60.79;100219.47;4477700;32;20141;-85
2022/11/11 05:34:19;;;;;;;15.25;5.72;;;;;;;11.41;60.30;100220.50;4486045;31;20126;-84
2022/11/11 05:36:45;;;;;;;17.08;6.07;;;;;;;11.29;60.67;100220.03;4486593;32;20114;-84
2022/11/11 05:39:10;;;;;;;15.15;5.60;;;;;;;11.36;60.45;100219.78;4486166;31;20200;-85
2022/11/11 05:41:38;;;;;;;14.98;5.45;;;;;;;11.24;60.63;100225.47;4485232;31;20470;-86
2022/11/11 05:44:04;;;;;;;13.23;5.32;;;;;;;11.39;60.12;100232.00;4474446;32;20130;-84
2022/11/11 05:46:29;;;;;;;16.62;5.18;;;;;;;11.49;59.88;100233.41;4482266;32;20092;-85
2022/11/11 05:51:43;;;;;;;12.63;4.57;;;;;;;11.49;59.77;100232.53;4485918;32;20127;-86
2022/11/11 05:54:08;;;;;;;13.60;5.30;;;;;;;11.47;59.71;100231.72;4479724;32;20616;-86
2022/11/11 05:56:36;;;;;;;15.25;4.90;;;;;;;11.45;59.76;100241.47;4485971;31;20088;-86
2022/11/11 05:59:02;;;;;;;15.00;4.75;;;;;;;11.28;59.94;100245.56;4473899;32;20084;-86
2022/11/11 06:01:27;;;;;;;11.27;4.30;;;;;;;11.43;59.65;100238.88;4485922;31;20353;-84
2022/11/11 06:03:53;;;;;;;13.38;4.60;;;;;;;11.53;59.30;100236.78;4486393;32;20092;-84
2022/11/11 06:06:18;;;;;;;14.00;4.43;;;;;;;11.57;59.21;100235.75;4485822;31;20144;-84
2022/11/11 06:08:44;;;;;;;12.75;4.22;;;;;;;11.56;59.42;100237.53;4482870;32;20145;-83
2022/11/11 06:11:10;;;;;;;12.05;4.03;;;;;;;11.69;59.19;100242.41;4485171;32;20096;-84
2022/11/11 06:13:35;;;;;;;11.95;4.00;;;;;;;11.74;59.09;100245.72;4486364;31;20148;-86
2022/11/11 06:16:01;;;;;;;13.07;3.85;;;;;;;11.83;58.88;100255.09;4485577;32;20137;-88
2022/11/11 06:18:27;;;;;;;12.68;4.10;;;;;;;11.87;58.69;100267.28;4472861;32;20112;-85
2022/11/11 06:20:56;;;;;;;11.40;4.60;;;;;;;11.64;58.35;100253.09;4484515;32;20190;-85
2022/11/11 06:23:22;;;;;;;12.48;4.25;;;;;;;11.96;57.57;100249.34;4486385;32;20750;-85
2022/11/11 06:28:33;;;;;;;11.60;4.12;;;;;;;12.13;57.31;100253.13;4486033;32;20111;-83
2022/11/11 06:31:01;;;;;;;9.20;3.78;;;;;;;12.16;57.18;100263.59;4485656;31;20139;-83
2022/11/11 06:33:27;;;;;;;14.77;4.12;;;;;;;12.19;56.84;100266.97;4485113;31;20099;-84
2022/11/11 06:35:52;;;;;;;13.40;4.75;;;;;;;12.20;56.29;100273.12;4485615;32;20180;-85
2022/11/11 06:38:18;;;;;;;16.05;5.43;;;;;;;11.62;58.57;100278.69;4485287;31;20088;-83
2022/11/11 06:40:44;;;;;;;15.05;5.30;;;;;;;11.73;58.54;100273.06;4482742;32;20117;-83
2022/11/11 06:43:10;;;;;;;16.55;5.93;;;;;;;11.69;58.74;100274.94;4485325;32;20089;-84
2022/11/11 06:45:35;;;;;;;15.68;5.90;;;;;;;11.82;58.32;100275.38;4485816;31;20138;-85
2022/11/11 06:48:02;;;;;;;12.27;5.10;;;;;;;12.03;57.97;100270.25;4483454;32;20366;-85
2022/11/11 06:50:28;;;;;;;15.13;5.70;;;;;;;12.20;57.66;100268.69;4483986;31;20096;-89
2022/11/11 06:52:54;;;;;;;14.23;5.45;;;;;;;12.16;57.52;100271.50;4472017;32;20145;-92
2022/11/11 06:55:19;;;;;;;14.75;5.40;;;;;;;12.23;57.75;100278.31;4471247;32;20120;-93
2022/11/11 06:57:45;;;;;;;15.80;5.32;;;;;;;12.06;57.98;100265.72;4485360;32;20107;-90
2022/11/11 07:00:11;;;;;;;17.95;6.07;;;;;;;12.51;56.98;100283.38;4485975;32;20388;-90
2022/11/11 07:02:36;;;;;;;13.52;4.68;;;;;;;12.54;57.11;100296.50;4471954;32;20123;-90
2022/11/11 07:05:01;;;;;;;15.07;5.50;;;;;;;12.27;56.96;100297.53;4486000;32;20096;-88
2022/11/11 07:07:27;;;;;;;16.02;7.05;;;;;;;12.42;56.44;100306.66;4483015;32;20428;-89
2022/11/11 07:09:54;;;;;;;13.95;4.85;;;;;;;12.62;55.97;100312.06;4482031;32;20104;-89
2022/11/11 07:12:20;;;;;;;17.70;5.25;;;;;;;12.68;56.11;100316.25;4465857;32;20132;-88
2022/11/11 07:14:46;;;;;;;24.60;7.97;;;;;;;12.66;56.07;100312.81;4479184;32;20144;-88
2022/11/11 07:17:11;;;;;;;18.83;5.30;;;;;;;12.84;55.49;100320.00;4463319;32;20125;-88
2022/11/11 07:19:37;;;;;;;14.82;4.45;;;;;;;12.89;55.07;100312.75;4477761;32;20427;-89
2022/11/11 07:22:02;;;;;;;15.65;4.70;;;;;;;12.85;55.14;100316.44;4467010;32;20385;-88
2022/11/11 07:24:27;;;;;;;13.07;4.35;;;;;;;12.61;55.73;100326.19;4477478;32;20126;-88
2022/11/11 07:26:53;;;;;;;14.00;4.72;;;;;;;12.59;56.71;100335.94;4466831;32;20432;-90
2022/11/11 07:29:18;;;;;;;11.77;4.32;;;;;;;12.86;55.44;100334.03;4478283;32;20479;-87
2022/11/11 07:31:44;;;;;;;13.15;5.03;;;;;;;12.52;56.45;100342.41;4477229;32;20146;-90
2022/11/11 07:34:09;;;;;;;13.62;4.95;;;;;;;12.84;55.37;100340.31;4477233;32;20076;-90
2022/11/11 07:36:34;;;;;;;14.90;4.78;;;;;;;12.70;56.02;100343.50;4464171;32;20068;-89
2022/11/11 07:39:00;;;;;;;11.20;4.57;;;;;;;12.97;55.30;100349.47;4476715;32;20100;-89
2022/11/11 07:41:25;;;;;;;15.13;5.30;;;;;;;12.87;55.46;100348.13;4477595;32;20231;-88
2022/11/11 07:43:51;;;;;;;12.60;4.90;;;;;;;12.99;55.17;100355.56;4466472;32;20427;-90
2022/11/11 07:46:17;;;;;;;14.38;5.62;;;;;;;12.98;55.60;100359.16;4487855;32;20144;-87
2022/11/11 07:48:43;;;;;;;14.23;5.28;;;;;;;12.63;56.86;100368.44;4487807;32;20096;-87
2022/11/11 07:51:08;;;;;;;14.73;5.50;;;;;;;12.82;56.51;100361.50;4473669;32;20345;-87
2022/11/11 07:53:34;;;;;;;16.83;5.90;;;;;;;12.84;56.42;100366.75;4487845;32;20089;-87
2022/11/11 07:55:59;;;;;;;14.23;4.62;;;;;;;13.28;55.00;100351.75;4487710;32;20120;-87
2022/11/11 07:58:24;;;;;;;13.32;5.20;;;;;;;13.54;53.67;100348.09;4487660;32;20092;-87
2022/11/11 08:00:59;;;;;;;14.15;5.20;;;;;;;13.29;54.34;100360.56;4487478;32;20081;-88
2022/11/11 08:03:24;;;;;;;13.48;5.12;;;;;;;13.10;55.54;100358.66;4487764;32;20103;-88
2022/11/11 08:05:50;;;;;;;19.37;7.93;;;;;;;13.21;55.00;100363.50;4487793;32;20508;-90
2022/11/11 08:08:16;;;;;;;20.85;8.52;;;;;;;13.48;54.81;100361.59;4473093;32;20107;-87
2022/11/11 08:10:41;;;;;;;17.75;7.85;;;;;;;13.62;55.21;100363.66;4487882;32;20200;-89
2022/11/11 08:15:57;;;;;;;24.75;12.60;;;;;;;13.98;54.87;100370.09;4474848;32;20102;-89
2022/11/11 08:18:22;;;;;;;27.05;14.18;;;;;;;13.89;55.53;100358.09;4460729;32;20104;-89
2022/11/11 08:20:48;;;;;;;29.00;13.70;;;;;;;13.98;55.73;100367.44;4472917;32;20119;-89
2022/11/11 08:23:16;;;;;;;32.67;15.57;;;;;;;14.12;55.58;100355.31;4487639;32;20089;-92
2022/11/11 08:25:45;;;;;;;;;;;;;;;13.95;56.31;100369.28;4488003;32;20072;-89
2022/11/11 08:28:10;;;;;;;;;;;;;;;14.24;55.65;100351.25;4487967;32;19976;-89
2022/11/11 08:30:36;;;;;;;31.55;15.57;;;;;;;14.19;55.97;100361.19;4473288;32;20312;-89
2022/11/11 08:33:05;;;;;;;32.47;16.17;;;;;;;14.29;55.60;100372.25;4487608;32;20159;-89
2022/11/11 08:35:31;;;;;;;33.70;16.90;;;;;;;14.39;55.61;100381.53;4487665;32;20420;-89
2022/11/11 08:38:12;;;;;;;28.85;16.58;;;;;;;14.46;55.58;100379.44;4487576;32;20487;-89
2022/11/11 08:40:38;;;;;;;34.55;17.37;;;;;;;14.40;55.83;100375.28;4487452;32;20122;-89
2022/11/11 08:43:04;;;;;;;35.35;17.58;;;;;;;14.57;55.34;100373.69;4473232;32;20503;-92
2022/11/11 08:45:29;;;;;;;36.85;16.92;;;;;;;14.26;56.43;100370.59;4487445;32;20103;-89
2022/11/11 08:47:55;;;;;;;36.22;16.25;;;;;;;14.58;55.68;100363.00;4487433;32;20124;-90
2022/11/11 08:50:20;;;;;;;33.63;17.12;;;;;;;14.57;55.38;100366.59;4473170;32;20504;-89
2022/11/11 08:52:47;;;;;;;34.97;17.20;;;;;;;14.32;55.80;100365.00;4487520;32;20114;-89
2022/11/11 08:55:12;;;;;;;31.00;17.42;;;;;;;14.56;55.17;100370.13;4487312;32;20132;-89
2022/11/11 08:57:37;;;;;;;31.30;16.90;;;;;;;14.67;54.84;100380.28;4487355;32;20276;-89
2022/11/11 09:00:04;;;;;;;32.25;16.80;;;;;;;14.09;56.46;100375.78;4487420;32;20084;-89
2022/11/11 09:02:29;;;;;;;34.22;17.70;;;;;;;14.51;55.40;100380.09;4487442;32;20457;-89
2022/11/11 09:04:58;;;;;;;40.25;18.12;;;;;;;14.68;54.88;100382.00;4487203;32;20120;-89
2022/11/11 09:07:23;;;;;;;32.67;16.92;;;;;;;14.78;54.57;100382.47;4487439;32;20161;-89
2022/11/11 09:09:51;;;;;;;31.00;16.98;;;;;;;14.58;54.88;100386.00;4487419;32;20136;-90
2022/11/11 09:12:16;;;;;;;35.50;17.75;;;;;;;14.73;54.80;100380.84;4487442;32;20147;-90
2022/11/11 09:14:45;;;;;;;33.28;17.00;;;;;;;14.82;54.68;100382.25;4487347;32;20092;-90
2022/11/11 09:17:13;;;;;;;34.83;18.52;;;;;;;14.97;54.53;100377.13;4487304;32;20088;-90
2022/11/11 09:19:38;;;;;;;33.22;17.40;;;;;;;14.43;55.55;100392.81;4487318;32;20101;-90
2022/11/11 09:22:05;;;;;;;31.83;16.70;;;;;;;14.89;54.63;100390.75;4487080;32;20084;-90
2022/11/11 09:24:31;;;;;;;35.40;17.33;;;;;;;14.51;55.38;100380.97;4487247;32;20087;-90
2022/11/11 09:26:57;;;;;;;35.00;16.70;;;;;;;14.85;54.60;100376.78;4487253;32;20123;-89
2022/11/11 09:29:22;;;;;;;29.80;15.77;;;;;;;14.71;55.04;100387.19;4472944;32;20121;-89
2022/11/11 09:31:47;;;;;;;31.90;16.62;;;;;;;14.84;54.80;100377.72;4487095;32;20132;-90
2022/11/11 09:34:13;;;;;;;30.52;15.75;;;;;;;15.03;54.26;100384.81;4472823;32;20088;-90
2022/11/11 09:36:38;;;;;;;31.60;14.68;;;;;;;15.00;54.15;100380.50;4487136;32;20146;-90
2022/11/11 09:39:04;;;;;;;25.95;13.30;;;;;;;14.86;54.42;100375.00;4487192;32;20135;-90
2022/11/11 09:41:54;;;;;;;27.37;12.55;;;;;;;15.06;54.03;100376.69;4487182;32;20359;-90
2022/11/11 09:44:27;;;;;;;26.23;11.15;;;;;;;15.11;54.01;100369.37;4487300;32;20456;-90
2022/11/11 09:47:16;;;;;;;29.80;12.35;;;;;;;15.13;53.74;100368.38;4472343;32;20105;-90
2022/11/11 09:49:57;;;;;;;22.02;11.15;;;;;;;15.15;53.63;100373.59;4474299;32;20195;-90
2022/11/11 09:52:46;;;;;;;22.23;10.30;;;;;;;15.18;53.69;100383.22;4487155;32;20438;-90
2022/11/11 09:55:26;;;;;;;24.52;10.60;;;;;;;15.16;53.69;100371.81;4487090;32;20103;-90
2022/11/11 09:57:57;;;;;;;20.85;11.05;;;;;;;14.91;54.23;100379.16;4472921;32;20093;-90
2022/11/11 10:00:32;;;;;;;21.77;10.50;;;;;;;15.10;53.61;100376.50;4487019;32;20165;-90
2022/11/11 10:03:08;;;;;;;20.23;10.45;;;;;;;15.27;53.23;100373.00;4472714;32;20091;-91
2022/11/11 10:06:03;;;;;;;19.55;9.57;;;;;;;15.33;53.38;100367.38;4486855;32;20099;-90
2022/11/11 10:08:33;;;;;;;23.08;10.40;;;;;;;15.40;53.64;100370.62;4422024;32;20245;-90
2022/11/11 10:11:00;;;;;;;19.30;9.05;;;;;;;15.45;53.72;100367.72;4410013;32;20109;-90
2022/11/11 10:13:29;;;;;;;23.43;9.60;;;;;;;15.49;53.44;100370.19;4409986;32;20467;-89
2022/11/11 10:16:41;;;;;;;21.33;9.25;;;;;;;15.62;53.25;100366.91;4422576;32;20082;-90
2022/11/11 10:19:18;;;;;;;18.85;9.02;;;;;;;15.57;52.82;100359.16;4376829;32;20114;-90
2022/11/11 10:21:51;;;;;;;21.52;9.00;;;;;;;15.67;52.66;100354.25;4364207;32;20130;-90
2022/11/11 10:24:25;;;;;;;22.02;10.00;;;;;;;15.73;52.77;100346.00;4364453;32;20102;-90
2022/11/11 10:26:51;;;;;;;20.33;9.43;;;;;;;15.70;52.93;100341.66;4376928;32;20114;-90
2022/11/11 10:29:18;;;;;;;20.27;8.93;;;;;;;15.77;52.77;100342.25;4364686;32;20122;-91
2022/11/11 10:31:48;;;;;;;18.02;9.25;;;;;;;15.87;52.44;100342.63;4377243;32;20651;-90
2022/11/11 10:34:16;;;;;;;18.73;8.77;;;;;;;15.99;52.25;100338.47;4377080;32;20106;-91
2022/11/11 10:36:52;;;;;;;18.52;9.13;;;;;;;15.97;52.32;100332.37;4364420;32;20609;-90
2022/11/11 10:39:28;;;;;;;20.67;9.35;;;;;;;16.06;52.11;100335.41;4364248;32;20152;-90
2022/11/11 10:41:54;;;;;;;18.85;9.02;;;;;;;16.22;51.85;100327.47;4377036;32;20185;-90
2022/11/11 10:44:23;;;;;;;19.83;9.60;;;;;;;16.01;52.32;100334.81;4381147;32;20114;-90
2022/11/11 10:47:13;;;;;;;19.40;9.60;;;;;;;16.28;52.18;100331.59;4409316;32;20112;-90
2022/11/11 10:49:52;;;;;;;20.45;10.15;;;;;;;16.39;52.20;100342.53;4447579;32;20152;-90
2022/11/11 10:52:54;;;;;;;22.13;9.63;;;;;;;16.22;52.13;100348.75;4473366;32;20467;-90
2022/11/11 10:55:29;;;;;;;22.73;10.20;;;;;;;16.33;52.38;100355.31;4393918;32;20118;-89
2022/11/11 10:57:59;;;;;;;22.40;10.05;;;;;;;16.71;51.25;100346.09;4406880;32;20159;-90
2022/11/11 11:00:25;;;;;;;22.30;9.57;;;;;;;16.60;51.33;100344.97;4406608;32;20132;-90
2022/11/11 11:03:05;;;;;;;20.85;9.85;;;;;;;16.85;50.43;100337.38;4393949;32;20122;-90
2022/11/11 11:05:57;;;;;;;21.05;11.35;;;;;;;16.83;50.42;100341.94;4406715;32;20114;-89
2022/11/11 11:08:33;;;;;;;20.23;9.80;;;;;;;16.45;51.09;100331.56;4406540;32;20137;-90
2022/11/11 11:11:06;;;;;;;20.60;10.27;;;;;;;16.92;50.58;100324.59;4393987;32;20498;-90
2022/11/11 11:13:33;;;;;;;17.95;9.27;;;;;;;17.04;49.91;100313.25;4394140;32;20101;-90
2022/11/11 11:16:03;;;;;;;20.88;9.68;;;;;;;17.04;49.80;100310.59;4406494;32;20136;-90
2022/11/11 11:18:29;;;;;;;19.98;9.63;;;;;;;17.01;49.40;100312.56;4393933;32;20086;-89
2022/11/11 11:21:05;;;;;;;22.50;10.80;;;;;;;16.98;49.25;100316.25;4407639;32;20195;-90
2022/11/11 11:23:41;;;;;;;25.75;11.80;;;;;;;17.02;49.08;100307.16;4408564;32;20125;-89
2022/11/11 11:26:08;;;;;;;25.55;12.13;;;;;;;16.61;50.15;100317.41;4408451;32;20097;-90
2022/11/11 11:28:34;;;;;;;23.50;13.00;;;;;;;16.15;51.39;100312.81;4395983;32;20102;-90
2022/11/11 11:31:04;;;;;;;27.50;13.38;;;;;;;16.55;50.51;100313.28;4415770;32;20431;-90
2022/11/11 11:33:50;;;;;;;27.92;13.60;;;;;;;16.66;50.43;100305.56;4488131;32;20162;-90
2022/11/11 11:36:17;;;;;;;29.65;13.95;;;;;;;16.64;50.78;100311.94;4473710;32;20088;-90
2022/11/11 11:38:49;;;;;;;24.37;12.75;;;;;;;16.53;51.00;100304.53;4488298;32;20541;-91
2022/11/11 11:41:17;;;;;;;25.65;13.80;;;;;;;16.64;51.29;100303.94;4488310;32;20131;-89
2022/11/11 11:43:45;;;;;;;25.80;13.62;;;;;;;16.61;51.39;100302.34;4488426;32;20131;-90
2022/11/11 11:46:37;;;;;;;26.73;14.30;;;;;;;16.61;51.02;100320.97;4473892;32;20092;-90
2022/11/11 11:49:07;;;;;;;28.67;14.48;;;;;;;16.46;51.41;100313.81;4488045;32;20468;-90
2022/11/11 11:51:54;;;;;;;30.67;15.63;;;;;;;16.49;51.51;100322.47;4488006;32;20119;-90
2022/11/11 11:54:31;;;;;;;27.80;14.95;;;;;;;16.31;51.86;100324.31;4488030;32;20119;-90
2022/11/11 11:57:01;;;;;;;17.52;7.72;;;;;;;16.27;52.24;100325.44;4473665;32;20115;-89
2022/11/11 11:59:40;;;;;;;16.98;5.55;;;;;;;16.03;51.23;100326.72;4473794;32;20111;-90
2022/11/11 12:02:33;;;;;;;16.00;5.50;;;;;;;15.58;51.06;100330.81;4474019;32;20130;-90
2022/11/11 12:05:20;;;;;;;15.70;5.72;;;;;;;16.05;50.18;100330.16;4487915;32;20177;-90
2022/11/11 12:08:05;;;;;;;13.30;4.20;;;;;;;15.91;50.40;100329.09;4488063;32;20104;-90
2022/11/11 12:11:10;;;;;;;9.70;2.75;;;;;;;15.62;50.51;100327.03;4473887;32;20458;-90
2022/11/11 12:13:45;;;;;;;10.75;2.70;;;;;;;15.51;50.29;100333.78;4473954;32;20127;-89
2022/11/11 12:16:13;;;;;;;7.95;2.55;;;;;;;15.13;50.72;100335.66;4473779;32;20468;-90
2022/11/11 12:19:16;;;;;;;8.90;2.58;;;;;;;14.54;51.47;100338.41;4487857;32;20160;-90
2022/11/11 12:22:10;;;;;;;7.75;2.37;;;;;;;14.63;51.58;100336.28;4487753;32;20514;-90
2022/11/11 12:25:06;;;;;;;10.90;2.53;;;;;;;14.39;51.61;100338.22;4473778;32;20120;-90
2022/11/11 12:27:47;;;;;;;8.73;2.50;;;;;;;14.44;51.59;100336.22;4488131;32;20135;-90
2022/11/11 12:30:20;;;;;;;10.27;2.92;;;;;;;14.62;51.60;100334.53;4487437;32;20143;-90
2022/11/11 12:32:58;;;;;;;10.80;2.67;;;;;;;14.33;51.85;100342.00;4473423;32;20088;-90
2022/11/11 12:35:36;;;;;;;10.13;2.30;;;;;;;14.26;52.22;100344.09;4473258;32;20457;-90
2022/11/11 12:38:05;;;;;;;9.02;2.50;;;;;;;14.56;50.99;100346.25;4473408;32;20088;-90
2022/11/11 12:40:52;;;;;;;10.27;2.83;;;;;;;14.34;51.35;100347.25;4487410;32;20508;-91
2022/11/11 12:43:40;;;;;;;9.70;2.47;;;;;;;14.44;51.39;100347.69;4487730;32;20107;-90
2022/11/11 12:46:21;;;;;;;11.60;2.60;;;;;;;14.49;50.89;100340.41;4487766;32;20092;-90